Irving South's Hourly Summary for Tuesday, May 15, 2018
Hour Temp
(f)
RH
(%)
Solar Rad.
(MJ/m2)
Rainfall
(in)
Wind
(mph)
5/15/2018 12:00 AM 78 66 0 0 1.24
5/15/2018 1:00 AM 77 67 0 0 0.47
5/15/2018 2:00 AM 76 68 0 0 0.23
5/15/2018 3:00 AM 76 69 0 0 0.67
5/15/2018 4:00 AM 75 70 0 0 0.67
5/15/2018 5:00 AM 75 71 0 0 0.87
5/15/2018 6:00 AM 75 72 0 0 1.43
5/15/2018 7:00 AM 74 76 0.01 0 0.22
5/15/2018 8:00 AM 74 75 0.21 0 0.18
5/15/2018 9:00 AM 75 73 0.43 0 0.13
5/15/2018 10:00 AM 74 74 0.57 0 2.5
5/15/2018 11:00 AM 75 69 1.24 0 3.13
5/15/2018 12:00 PM 76 70 1.42 0 2.9
5/15/2018 1:00 PM 78 64 1.68 0 2.2
5/15/2018 2:00 PM 81 53 2.95 0 3
5/15/2018 3:00 PM 84 50 3.41 0 2.11
5/15/2018 4:00 PM 86 43 2.93 0 2.19
5/15/2018 5:00 PM 85 47 0.97 0 0.97
5/15/2018 6:00 PM 83 51 0.36 0 0.46
5/15/2018 7:00 PM 83 51 0.54 0 0.91
5/15/2018 8:00 PM 83 53 0.29 0 1.68
5/15/2018 9:00 PM 78 54 0.01 0 3.06
5/15/2018 10:00 PM 76 59 0 0 0.93
5/15/2018 11:00 PM 75 63 0 0 0.22
Data Summary 78 62 17.02 0.00 1.35